Aviation Digital Data Service (ADDS)

Output produced by METARs form (0548 UTC 30 March 2015)
found at http://aviationweather.gov/adds/metars/
 
KHYA 300524Z 3006/3106 22007KT P6SM FEW250 
     FM301200 20011G20KT P6SM BKN130 
     FM301800 21014G24KT P6SM OVC035 
     TEMPO 3018/3021 4SM -SHRA OVC015 
     FM302200 22013G21KT P6SM BKN040 
     FM310300 25010KT P6SM SCT045